Time;durP1;ratioP1;P1;durP2;ratioP2;P2;SDS_P1;SDS_P2;PMS_P1;PMS_P2;Temp;Humidity;BMP_temperature;BMP_pressure;BME280_temperature;BME280_humidity;BME280_pressure;Samples;Min_cycle;Max_cycle;Signal;HPM_P1;HPM_P2
2022/01/19 00:01:35;;;;;;;44.55;17.67;;;;;;;-0.10;82.81;101897.28;2035208;86;21058;-78
2022/01/19 00:04:37;;;;;;;47.48;19.80;;;;;;;-0.08;82.73;101885.50;2014582;87;21042;-79
2022/01/19 00:07:39;;;;;;;47.55;17.73;;;;;;;-0.15;82.69;101875.72;2037000;86;21075;-78
2022/01/19 00:10:40;;;;;;;44.83;16.75;;;;;;;-0.11;82.89;101866.88;2029979;86;21121;-78
2022/01/19 00:13:42;;;;;;;54.00;18.00;;;;;;;-0.08;82.86;101869.84;2035521;86;21136;-78
2022/01/19 00:16:43;;;;;;;42.78;16.77;;;;;;;-0.09;82.87;101866.35;2034166;85;20998;-79
2022/01/19 00:19:44;;;;;;;44.90;17.40;;;;;;;-0.14;82.70;101867.00;2031036;86;21068;-78
2022/01/19 00:22:45;;;;;;;48.42;16.60;;;;;;;-0.17;82.74;101867.11;2035873;86;20989;-79
2022/01/19 00:25:48;;;;;;;;;;;;;;;-0.18;82.70;101873.22;2036176;86;21066;-78
2022/01/19 00:28:49;;;;;;;41.37;18.02;;;;;;;-0.16;82.81;101871.88;2020600;86;20203;-79
2022/01/19 00:31:51;;;;;;;40.10;16.82;;;;;;;-0.15;82.90;101867.04;2016472;85;21055;-78
2022/01/19 00:34:52;;;;;;;42.90;16.75;;;;;;;-0.11;83.00;101857.75;2015448;85;22262;-79
2022/01/19 00:37:54;;;;;;;43.68;17.20;;;;;;;-0.04;83.01;101854.45;2017023;86;21480;-78
2022/01/19 00:40:57;;;;;;;40.33;15.90;;;;;;;-0.01;82.92;101848.66;2000669;86;21737;-79
2022/01/19 00:43:59;;;;;;;38.05;16.42;;;;;;;0.04;82.89;101846.34;2019126;86;21033;-83
2022/01/19 00:47:00;;;;;;;40.45;15.75;;;;;;;0.05;82.86;101848.88;2016613;86;21071;-78
2022/01/19 00:50:04;;;;;;;38.17;15.25;;;;;;;0.07;82.83;101854.91;2016782;86;21003;-79
2022/01/19 00:53:06;;;;;;;38.17;14.98;;;;;;;0.05;82.73;101863.70;2017760;86;21641;-79
2022/01/19 00:56:07;;;;;;;34.00;13.25;;;;;;;0.02;82.74;101854.22;2023351;86;21061;-82
2022/01/19 00:59:08;;;;;;;35.13;12.82;;;;;;;0.03;82.87;101850.72;2018431;86;21094;-79
2022/01/19 01:02:10;;;;;;;28.92;12.65;;;;;;;0.03;82.85;101853.34;2015638;86;20988;-79
2022/01/19 01:05:11;;;;;;;33.80;13.40;;;;;;;0.02;82.87;101852.08;2012070;85;21607;-79
2022/01/19 01:08:12;;;;;;;34.05;12.35;;;;;;;0.04;82.97;101843.28;2016223;86;21015;-83
2022/01/19 01:11:14;;;;;;;38.10;12.80;;;;;;;0.07;83.03;101841.86;2017250;86;22326;-78
2022/01/19 01:20:39;;;;;;;31.05;11.57;;;;;;;0.04;83.08;101841.97;2015887;86;21877;-79
2022/01/19 01:23:41;;;;;;;24.63;11.20;;;;;;;0.05;83.10;101832.38;2020121;86;21047;-78
2022/01/19 01:26:42;;;;;;;28.77;12.50;;;;;;;0.08;83.20;101821.82;2014456;86;21210;-80
2022/01/19 01:29:44;;;;;;;34.50;13.32;;;;;;;0.08;83.13;101812.69;2021947;86;21058;-78
2022/01/19 01:32:46;;;;;;;35.28;14.03;;;;;;;0.11;83.23;101811.27;2024408;86;21066;-78
2022/01/19 01:35:48;;;;;;;32.38;14.25;;;;;;;0.13;83.26;101808.14;2019999;86;21116;-78
2022/01/19 01:38:49;;;;;;;30.80;13.68;;;;;;;0.10;83.22;101786.92;2024321;86;21070;-79
2022/01/19 01:41:50;;;;;;;30.27;13.48;;;;;;;0.10;83.24;101794.75;2024673;86;21757;-79
2022/01/19 01:44:57;;;;;;;26.57;12.33;;;;;;;0.11;83.26;101782.55;2021395;85;21020;-79
2022/01/19 01:48:06;;;;;;;35.52;14.35;;;;;;;0.10;83.28;101760.82;2021189;86;21684;-78
2022/01/19 01:54:23;;;;;;;62.10;17.48;;;;;;;0.15;83.47;101748.91;2018058;86;21079;-79
2022/01/19 01:57:24;;;;;;;34.40;15.32;;;;;;;0.15;83.66;101735.39;2025895;86;21217;-78
2022/01/19 02:00:26;;;;;;;31.07;13.83;;;;;;;0.15;83.63;101731.94;2024859;86;21577;-82
2022/01/19 02:03:28;;;;;;;35.38;14.73;;;;;;;0.13;83.61;101730.68;2023229;86;21127;-78
2022/01/19 02:06:33;;;;;;;31.57;14.95;;;;;;;0.12;83.67;101737.28;2027286;86;21076;-78
2022/01/19 02:09:37;;;;;;;35.63;13.90;;;;;;;0.14;83.76;101741.97;2020598;86;21055;-82
2022/01/19 02:16:17;;;;;;;33.80;15.13;;;;;;;0.20;83.79;101748.28;2025459;86;21589;-78
2022/01/19 02:22:30;;;;;;;;;;;;;;;0.21;83.82;101720.79;2026347;85;21129;-79
2022/01/19 02:25:29;;;;;;;34.53;15.05;;;;;;;0.15;83.85;101720.19;2008336;87;20184;-82
2022/01/19 02:41:35;;;;;;;32.42;14.95;;;;;;;0.21;84.24;101691.22;1989625;88;21268;-78
2022/01/19 02:51:07;;;;;;;26.50;13.50;;;;;;;0.28;84.24;101675.69;2003457;86;21044;-83
2022/01/19 02:54:14;;;;;;;26.15;12.70;;;;;;;0.31;84.25;101670.80;2015329;86;21541;-79
2022/01/19 02:57:17;;;;;;;27.17;12.65;;;;;;;0.30;84.26;101662.12;2018056;86;21074;-83
2022/01/19 03:10:00;;;;;;;24.72;13.68;;;;;;;0.36;84.28;101632.30;2017307;86;21056;-79
2022/01/19 03:13:02;;;;;;;25.97;12.53;;;;;;;0.38;84.26;101622.18;2020346;86;21077;-80
2022/01/19 03:16:04;;;;;;;26.23;13.45;;;;;;;0.37;84.28;101612.66;1999317;86;21059;-79
2022/01/19 03:19:08;;;;;;;33.08;12.63;;;;;;;0.37;84.25;101614.43;2016313;86;21060;-79
2022/01/19 03:22:09;;;;;;;21.00;12.00;;;;;;;0.37;84.24;101612.66;2020116;86;21040;-79
2022/01/19 03:25:12;;;;;;;21.93;11.05;;;;;;;0.35;84.23;101600.12;2013523;86;21093;-83
2022/01/19 03:28:15;;;;;;;17.32;9.95;;;;;;;0.36;84.19;101598.34;2015730;86;21526;-79
2022/01/19 03:31:16;;;;;;;23.57;10.13;;;;;;;0.37;84.19;101588.31;2014270;86;21075;-79
2022/01/19 03:34:18;;;;;;;23.12;11.20;;;;;;;0.37;84.16;101595.69;2017573;86;21086;-79
2022/01/19 03:37:21;;;;;;;23.73;11.03;;;;;;;0.39;84.16;101586.00;2017504;86;21051;-80
2022/01/19 03:40:22;;;;;;;23.85;11.03;;;;;;;0.40;84.10;101577.27;2016005;86;21059;-79
2022/01/19 03:43:27;;;;;;;20.27;10.13;;;;;;;0.38;84.02;101569.95;2017764;86;20997;-79
2022/01/19 03:46:42;;;;;;;19.02;9.83;;;;;;;0.37;83.99;101567.42;2016649;86;21066;-79
2022/01/19 03:49:37;;;;;;;18.07;9.10;;;;;;;0.35;83.92;101568.78;2010384;86;21553;-79
2022/01/19 03:52:38;;;;;;;20.05;8.73;;;;;;;0.33;83.87;101564.54;2015467;86;21113;-80
2022/01/19 03:55:40;;;;;;;19.07;9.30;;;;;;;0.32;83.84;101562.39;2018593;86;20998;-79
2022/01/19 03:58:41;;;;;;;20.08;8.55;;;;;;;0.33;83.85;101558.85;2016474;86;21075;-80
2022/01/19 04:01:42;;;;;;;19.50;8.13;;;;;;;0.34;83.87;101554.04;2001782;86;21527;-79
2022/01/19 04:05:11;;;;;;;17.23;8.33;;;;;;;0.36;83.86;101546.97;2022536;86;21113;-79
2022/01/19 04:07:46;;;;;;;17.05;7.37;;;;;;;0.38;83.82;101545.15;2019055;85;20999;-83
2022/01/19 04:10:48;;;;;;;19.50;8.53;;;;;;;0.38;83.74;101538.62;2020417;86;21058;-79
2022/01/19 04:17:13;;;;;;;14.20;7.60;;;;;;;0.37;83.72;101537.39;2002519;86;21048;-78
2022/01/19 04:20:14;;;;;;;12.28;6.75;;;;;;;0.36;83.70;101528.69;2018377;86;21123;-79
2022/01/19 04:23:18;;;;;;;14.63;7.78;;;;;;;0.39;83.71;101525.94;2024243;86;21030;-79
2022/01/19 04:26:22;;;;;;;15.30;8.10;;;;;;;0.42;83.69;101531.48;2015650;86;21106;-79
2022/01/19 04:29:23;;;;;;;20.92;9.58;;;;;;;0.42;83.61;101523.22;2022406;86;21106;-79
2022/01/19 04:32:48;;;;;;;18.12;9.58;;;;;;;0.41;83.62;101528.03;2032827;86;21947;-80
2022/01/19 04:35:54;;;;;;;29.87;14.53;;;;;;;0.38;83.56;101517.73;2030801;85;21077;-79
2022/01/19 04:39:27;;;;;;;17.37;9.70;;;;;;;0.38;83.59;101523.41;2028934;86;21143;-78
2022/01/19 05:05:27;;;;;;;14.45;7.05;;;;;;;0.42;83.42;101503.64;2029985;85;21064;-81
2022/01/19 05:08:49;;;;;;;13.20;7.55;;;;;;;0.44;83.44;101499.17;2033067;85;21127;-80
2022/01/19 05:15:18;;;;;;;17.27;8.00;;;;;;;0.42;83.38;101493.19;2024627;85;21963;-79
2022/01/19 05:18:22;;;;;;;14.83;7.33;;;;;;;0.43;83.39;101494.03;2026413;86;21081;-79
2022/01/19 05:21:24;;;;;;;15.03;7.35;;;;;;;0.42;83.30;101485.78;2025933;86;21024;-79
2022/01/19 05:24:46;;;;;;;15.60;7.97;;;;;;;0.43;83.37;101487.04;2028239;86;21122;-78
2022/01/19 05:27:55;;;;;;;18.20;7.95;;;;;;;0.46;83.34;101478.69;2023819;85;21015;-78
2022/01/19 05:31:00;;;;;;;20.82;8.70;;;;;;;0.47;83.32;101464.23;2013341;86;21088;-78
2022/01/19 05:34:04;;;;;;;15.72;8.20;;;;;;;0.46;83.25;101466.47;2019693;86;21455;-83
2022/01/19 05:37:07;;;;;;;17.07;7.70;;;;;;;0.46;83.27;101462.55;2018003;86;21064;-80
2022/01/19 05:40:17;;;;;;;16.57;7.67;;;;;;;0.46;83.23;101461.72;2020415;85;21118;-78
2022/01/19 05:43:29;;;;;;;19.65;8.23;;;;;;;0.47;83.24;101457.70;2021951;85;21060;-80
2022/01/19 05:46:36;;;;;;;14.78;7.08;;;;;;;0.49;83.26;101455.05;2013827;86;21743;-81
2022/01/19 05:49:43;;;;;;;16.75;7.87;;;;;;;0.51;83.16;101450.14;2019402;86;21069;-83
2022/01/19 05:52:44;;;;;;;14.90;7.85;;;;;;;0.52;83.12;101444.45;2013302;86;21067;-84
2022/01/19 05:55:45;;;;;;;16.10;8.05;;;;;;;0.52;83.13;101437.92;2015011;86;21113;-79
2022/01/19 05:58:48;;;;;;;15.18;8.13;;;;;;;0.52;83.23;101434.01;2023457;86;21033;-78
2022/01/19 06:01:49;;;;;;;16.02;7.85;;;;;;;0.52;83.18;101435.31;2015623;86;21775;-79
2022/01/19 06:04:51;;;;;;;17.05;8.03;;;;;;;0.53;83.13;101430.00;2019503;86;21672;-79
2022/01/19 06:11:18;;;;;;;14.68;7.87;;;;;;;0.55;83.13;101431.25;1988918;86;21017;-79
2022/01/19 06:14:21;;;;;;;17.98;9.00;;;;;;;0.60;83.18;101431.43;2015058;86;21070;-79
2022/01/19 06:17:22;;;;;;;15.72;8.55;;;;;;;0.67;83.17;101422.84;2017234;86;21502;-78
2022/01/19 06:20:24;;;;;;;15.18;7.60;;;;;;;0.69;83.05;101414.94;2016782;86;21016;-78
2022/01/19 06:23:26;;;;;;;15.45;7.67;;;;;;;0.67;82.98;101409.77;2015385;86;21093;-78
2022/01/19 06:26:39;;;;;;;13.83;7.17;;;;;;;0.66;82.92;101409.40;2025789;85;21572;-78
2022/01/19 06:33:11;;;;;;;16.27;9.35;;;;;;;0.73;83.01;101398.19;1985384;85;21093;-79
2022/01/19 06:36:13;;;;;;;19.73;9.88;;;;;;;0.77;82.90;101399.29;2027628;86;21106;-78
2022/01/19 06:39:41;;;;;;;17.77;9.35;;;;;;;0.81;82.85;101390.38;1988531;86;21142;-79
2022/01/19 06:42:44;;;;;;;16.20;9.05;;;;;;;0.83;82.83;101387.23;2031519;86;21031;-79
2022/01/19 06:45:45;;;;;;;14.28;8.03;;;;;;;0.83;82.86;101376.78;2036357;86;21047;-82
2022/01/19 06:48:49;;;;;;;13.30;7.42;;;;;;;0.87;82.74;101375.73;2039502;86;21031;-79
2022/01/19 06:51:52;;;;;;;16.70;8.33;;;;;;;0.90;82.66;101373.41;2035247;86;21061;-80
2022/01/19 06:54:53;;;;;;;17.70;8.35;;;;;;;0.91;82.63;101372.97;2013641;86;21056;-78
2022/01/19 06:57:57;;;;;;;14.25;7.37;;;;;;;0.95;82.63;101365.35;2033944;86;21073;-78
2022/01/19 07:01:16;;;;;;;16.93;8.85;;;;;;;0.98;82.64;101358.66;2035912;86;21098;-80
2022/01/19 07:04:23;;;;;;;18.87;9.35;;;;;;;0.99;82.51;101355.99;2036347;84;21055;-78
2022/01/19 07:07:28;;;;;;;15.90;8.55;;;;;;;0.97;82.41;101362.22;2026423;86;21114;-79
2022/01/19 07:10:40;;;;;;;20.80;9.87;;;;;;;0.96;82.43;101360.06;2031064;86;21719;-78
2022/01/19 07:13:56;;;;;;;;;;;;;;;;;;;;;
2022/01/19 07:16:47;;;;;;;13.55;8.60;;;;;;;1.02;82.42;101352.38;2030622;86;21130;-78
2022/01/19 07:19:58;;;;;;;;;;;;;;;;;;;;;
2022/01/19 07:23:08;;;;;;;18.57;9.68;;;;;;;1.06;82.30;101353.91;2038219;85;21070;-78
2022/01/19 07:26:10;;;;;;;20.82;10.48;;;;;;;1.11;82.37;101353.23;1993866;86;21047;-79
2022/01/19 07:29:14;;;;;;;27.48;12.85;;;;;;;1.12;82.25;101354.91;2029070;86;21048;-79
2022/01/19 07:32:20;;;;;;;25.72;13.22;;;;;;;1.16;82.34;101341.25;2021782;86;21154;-78
2022/01/19 07:35:21;;;;;;;18.37;9.75;;;;;;;1.20;82.30;101329.23;2020741;86;21068;-79
2022/01/19 07:38:26;;;;;;;21.27;9.65;;;;;;;1.20;82.09;101326.62;2021366;86;21020;-79
2022/01/19 07:41:28;;;;;;;16.95;10.28;;;;;;;1.23;82.13;101322.54;2020458;86;21088;-78
2022/01/19 07:44:30;;;;;;;20.45;12.07;;;;;;;1.26;82.06;101319.77;2015746;86;21489;-78
2022/01/19 07:47:50;;;;;;;24.15;13.32;;;;;;;1.28;82.07;101321.85;2021074;86;21095;-79
2022/01/19 07:50:56;;;;;;;29.90;12.63;;;;;;;1.28;82.00;101310.55;2022889;86;22085;-79
2022/01/19 07:54:05;;;;;;;24.90;14.73;;;;;;;1.26;82.06;101315.84;2023264;85;21581;-78
2022/01/19 07:57:11;;;;;;;23.38;12.23;;;;;;;1.32;82.10;101301.17;1977205;86;21095;-79
2022/01/19 08:00:22;;;;;;;20.57;11.63;;;;;;;1.38;82.10;101296.53;2015216;86;21563;-79
2022/01/19 08:03:25;;;;;;;27.98;14.93;;;;;;;1.45;82.04;101290.07;2015999;85;21110;-78
2022/01/19 08:06:29;;;;;;;37.03;20.55;;;;;;;1.50;81.95;101283.67;2019477;86;21941;-78
2022/01/19 08:09:40;;;;;;;52.60;26.93;;;;;;;1.55;81.76;101287.38;2020081;86;21635;-79
2022/01/19 08:12:43;;;;;;;43.35;22.27;;;;;;;1.58;81.87;101285.91;2002767;86;21730;-79
2022/01/19 08:15:45;;;;;;;32.48;17.55;;;;;;;1.64;81.85;101286.88;2016898;86;21061;-75
2022/01/19 08:18:52;;;;;;;24.85;11.40;;;;;;;1.69;81.84;101280.95;2020878;86;21104;-85
2022/01/19 08:21:55;;;;;;;18.15;9.30;;;;;;;1.71;81.69;101280.84;2041992;85;21021;-79
2022/01/19 08:24:56;;;;;;;18.50;9.15;;;;;;;1.72;81.49;101279.94;2015813;86;21098;-78
2022/01/19 08:28:12;;;;;;;17.25;10.10;;;;;;;1.74;81.57;101279.38;1999211;86;21074;-78
2022/01/19 08:31:20;;;;;;;19.87;11.03;;;;;;;1.83;81.63;101281.52;2010062;86;21691;-79
2022/01/19 08:34:55;;;;;;;21.55;10.68;;;;;;;1.88;81.50;101274.24;2013193;86;21078;-81
2022/01/19 08:37:59;;;;;;;24.20;11.03;;;;;;;1.92;81.35;101261.86;2018614;86;21667;-82
2022/01/19 08:41:03;;;;;;;25.15;12.80;;;;;;;1.93;81.32;101258.30;2020794;86;21081;-82
2022/01/19 08:44:10;;;;;;;23.25;12.15;;;;;;;1.94;81.34;101263.47;2021574;85;21358;-81
2022/01/19 08:47:13;;;;;;;22.95;12.25;;;;;;;1.94;81.19;101253.44;2017754;86;21017;-80
2022/01/19 08:50:25;;;;;;;22.25;12.98;;;;;;;1.94;81.26;101251.69;2020658;86;21539;-79
2022/01/19 08:53:31;;;;;;;22.55;11.97;;;;;;;1.96;81.09;101239.34;1997695;86;21521;-80
2022/01/19 08:56:54;;;;;;;27.58;12.78;;;;;;;1.99;81.05;101231.78;2016935;86;21089;-80
2022/01/19 08:59:55;;;;;;;25.68;12.13;;;;;;;2.06;81.06;101225.30;2013168;85;21110;-81
2022/01/19 09:02:57;;;;;;;25.50;12.68;;;;;;;2.10;80.99;101225.95;2014446;86;21086;-81
2022/01/19 09:05:58;;;;;;;28.87;13.43;;;;;;;2.18;81.06;101224.59;2016101;85;21049;-81
2022/01/19 09:09:02;;;;;;;26.55;11.97;;;;;;;2.27;81.08;101220.61;2019610;86;21043;-81
2022/01/19 09:12:12;;;;;;;27.50;12.65;;;;;;;2.34;80.90;101221.13;2013822;86;21062;-80
2022/01/19 09:15:14;;;;;;;27.00;13.35;;;;;;;2.36;80.71;101217.94;2016244;86;21627;-81
2022/01/19 09:18:22;;;;;;;34.48;16.00;;;;;;;2.40;80.69;101216.85;2017714;86;21088;-80
2022/01/19 09:21:27;;;;;;;23.67;12.15;;;;;;;2.46;80.65;101216.02;2015811;86;21110;-80
2022/01/19 09:24:34;;;;;;;25.60;12.93;;;;;;;2.54;80.38;101209.52;2013270;86;21119;-79
2022/01/19 09:27:44;;;;;;;28.42;13.62;;;;;;;2.58;80.38;101205.77;2015479;86;21165;-80
2022/01/19 09:30:59;;;;;;;20.85;12.82;;;;;;;2.60;80.19;101196.89;2014902;86;21031;-80
2022/01/19 09:34:10;;;;;;;21.80;12.13;;;;;;;2.58;79.54;101198.75;2011802;86;21130;-79
2022/01/19 09:37:14;;;;;;;24.43;12.55;;;;;;;2.59;79.93;101196.53;2021679;86;21073;-79
2022/01/19 09:40:15;;;;;;;25.05;12.33;;;;;;;2.57;79.35;101189.20;2016535;86;21049;-79
2022/01/19 09:43:25;;;;;;;19.50;10.05;;;;;;;2.66;79.94;101181.27;2018594;86;21035;-79
2022/01/19 09:47:01;;;;;;;;;;;;;;;;;;;;;
2022/01/19 09:50:01;;;;;;;23.38;12.07;;;;;;;2.99;79.83;101181.06;2021672;86;21121;-82
2022/01/19 09:53:09;;;;;;;21.65;11.50;;;;;;;3.13;79.51;101169.74;2012056;86;21091;-84
2022/01/19 09:56:18;;;;;;;25.43;13.60;;;;;;;3.23;79.08;101166.91;2011204;86;21077;-83
2022/01/19 09:59:18;;;;;;;23.83;12.95;;;;;;;3.30;78.51;101159.53;2014540;86;21501;-80
2022/01/19 10:02:20;;;;;;;23.45;12.47;;;;;;;3.33;78.53;101157.55;2017242;86;21527;-80
2022/01/19 10:05:21;;;;;;;22.25;12.33;;;;;;;3.40;77.87;101151.92;2015520;86;21004;-80
2022/01/19 10:08:48;;;;;;;23.40;12.90;;;;;;;3.47;78.56;101144.89;2045956;85;21008;-79
2022/01/19 10:18:34;;;;;;;20.85;11.12;;;;;;;4.08;76.94;101130.08;2017211;86;21099;-79
2022/01/19 10:21:36;;;;;;;20.08;11.10;;;;;;;4.30;77.54;101119.84;1999701;86;21127;-79
2022/01/19 10:25:03;;;;;;;19.27;10.08;;;;;;;4.64;76.66;101112.33;1998872;86;21122;-78
2022/01/19 10:28:08;;;;;;;24.20;11.83;;;;;;;4.90;74.81;101103.52;2014018;86;21042;-75
2022/01/19 10:31:18;;;;;;;25.77;12.90;;;;;;;5.02;75.67;101095.23;2007112;86;21016;-80
2022/01/19 10:34:25;;;;;;;22.62;11.55;;;;;;;5.24;75.75;101084.53;2025995;86;21108;-81
2022/01/19 10:37:29;;;;;;;18.15;8.55;;;;;;;5.49;75.51;101078.33;2031129;86;21087;-80
2022/01/19 10:40:35;;;;;;;14.90;8.23;;;;;;;5.79;75.62;101067.36;2027676;86;21032;-79
2022/01/19 10:43:48;;;;;;;21.52;11.15;;;;;;;6.07;75.10;101062.25;2027897;85;21031;-81
2022/01/19 10:46:55;;;;;;;24.25;12.18;;;;;;;6.33;74.97;101052.85;2026339;86;21138;-79
2022/01/19 10:50:00;;;;;;;19.70;10.53;;;;;;;6.61;74.76;101044.50;1981871;89;21078;-83
2022/01/19 10:53:06;;;;;;;21.80;12.33;;;;;;;6.66;71.31;101038.88;2028617;86;21501;-81
2022/01/19 10:56:43;;;;;;;24.75;13.58;;;;;;;6.58;70.95;101034.19;2012583;87;21131;-79
2022/01/19 10:59:44;;;;;;;26.10;11.70;;;;;;;6.50;70.88;101028.66;2046404;86;21070;-79
2022/01/19 11:02:54;;;;;;;19.50;10.60;;;;;;;6.31;72.07;101017.84;1978087;89;21085;-80
2022/01/19 11:06:08;;;;;;;17.35;9.78;;;;;;;6.33;70.94;101016.78;2033582;86;21088;-79
2022/01/19 11:09:14;;;;;;;13.48;9.00;;;;;;;6.32;71.88;101007.69;2040365;86;21090;-82
2022/01/19 11:12:24;;;;;;;16.85;9.65;;;;;;;6.31;70.17;100998.08;2044684;86;21601;-80
2022/01/19 11:15:22;;;;;;;14.13;7.45;;;;;;;6.05;69.78;100994.32;2010533;87;21047;-80
2022/01/19 11:18:35;;;;;;;17.65;8.93;;;;;;;5.82;69.48;100990.27;2043726;86;21117;-81
2022/01/19 11:22:00;;;;;;;13.65;7.35;;;;;;;5.70;68.37;100980.67;2047105;86;21596;-80
2022/01/19 11:25:43;;;;;;;13.20;8.15;;;;;;;5.66;70.34;100967.38;1970019;89;21051;-82
2022/01/19 11:28:52;;;;;;;;;;;;;;;5.88;71.05;100959.17;2048827;86;21053;-83
2022/01/19 11:31:58;;;;;;;16.02;8.25;;;;;;;5.96;70.34;100945.80;2032334;86;20128;-80
2022/01/19 11:34:58;;;;;;;13.43;7.50;;;;;;;6.00;69.88;100944.63;2001567;86;21623;-83
2022/01/19 11:38:01;;;;;;;20.45;9.70;;;;;;;5.97;68.66;100936.10;2024674;86;21077;-80
2022/01/19 11:41:16;;;;;;;13.20;6.90;;;;;;;5.81;68.37;100931.15;2026187;86;21128;-80
2022/01/19 11:44:41;;;;;;;11.68;6.67;;;;;;;5.62;67.30;100916.72;2021434;85;21103;-80
2022/01/19 11:47:44;;;;;;;19.20;9.83;;;;;;;5.42;66.55;100915.23;2026719;85;21071;-80
2022/01/19 11:50:51;;;;;;;17.12;8.03;;;;;;;5.18;67.57;100914.78;2025677;86;21491;-80
2022/01/19 11:54:10;;;;;;;13.28;7.37;;;;;;;5.16;68.36;100903.52;2026434;86;21056;-79
2022/01/19 11:57:22;;;;;;;15.80;7.72;;;;;;;5.12;68.32;100898.97;2027984;86;21601;-80
2022/01/19 12:00:42;;;;;;;16.15;7.15;;;;;;;5.07;67.29;100897.63;2028816;85;21075;-81
2022/01/19 12:03:43;;;;;;;12.63;7.37;;;;;;;4.98;67.31;100885.95;2021682;85;21022;-81
2022/01/19 12:06:47;;;;;;;14.78;7.42;;;;;;;4.85;66.97;100886.03;2026314;86;21055;-80
2022/01/19 12:10:03;;;;;;;16.20;7.28;;;;;;;4.85;68.29;100879.45;2027544;85;21079;-80
2022/01/19 12:13:57;;;;;;;14.38;7.33;;;;;;;4.80;66.30;100868.42;2019172;86;21103;-80
2022/01/19 12:17:04;;;;;;;14.65;7.50;;;;;;;4.53;66.46;100856.78;2022344;86;21142;-80
2022/01/19 12:20:51;;;;;;;16.77;7.45;;;;;;;4.22;66.30;100838.41;2024020;86;21041;-80
2022/01/19 12:23:56;;;;;;;12.55;6.85;;;;;;;4.07;65.94;100829.84;2028990;84;21051;-81
2022/01/19 12:27:15;;;;;;;13.18;7.53;;;;;;;3.93;67.04;100820.77;2043890;85;21047;-82
2022/01/19 12:30:31;;;;;;;14.95;7.90;;;;;;;3.94;67.95;100818.50;2026659;86;21083;-81
2022/01/19 12:33:40;;;;;;;17.12;8.60;;;;;;;3.99;68.30;100810.66;2035507;86;21007;-81
2022/01/19 12:37:02;;;;;;;21.42;11.22;;;;;;;4.09;68.44;100808.25;2036108;86;21047;-80
2022/01/19 12:40:27;;;;;;;14.03;7.37;;;;;;;4.06;67.26;100799.76;2015570;86;21090;-80
2022/01/19 12:43:35;;;;;;;18.55;9.23;;;;;;;4.03;68.28;100792.45;2040423;86;21067;-80
2022/01/19 12:46:39;;;;;;;14.87;7.58;;;;;;;4.01;67.85;100786.46;2039524;86;21120;-82
2022/01/19 12:49:41;;;;;;;13.62;8.38;;;;;;;3.91;68.25;100774.91;2042944;86;21304;-80
2022/01/19 12:52:52;;;;;;;15.55;7.70;;;;;;;3.92;68.50;100773.16;2033252;86;21091;-80
2022/01/19 12:56:09;;;;;;;20.23;11.70;;;;;;;3.82;68.32;100765.90;2040174;84;21089;-81
2022/01/19 12:59:15;;;;;;;14.45;10.00;;;;;;;3.80;68.94;100761.70;1983178;85;21614;-80
2022/01/19 13:02:29;;;;;;;16.05;9.33;;;;;;;3.82;68.73;100753.25;2029966;85;21033;-80
2022/01/19 13:05:42;;;;;;;;;;;;;;;3.84;69.27;100753.99;2026304;86;21393;-81
2022/01/19 13:09:04;;;;;;;12.78;9.23;;;;;;;3.79;69.13;100748.22;2026650;86;20244;-81
2022/01/19 13:12:15;;;;;;;13.32;7.60;;;;;;;3.78;69.23;100738.20;2029446;86;21613;-82
2022/01/19 13:15:18;;;;;;;13.13;9.20;;;;;;;3.73;69.28;100740.78;2028535;86;21067;-80
2022/01/19 13:18:44;;;;;;;13.65;8.83;;;;;;;3.80;69.50;100726.27;2024879;86;21558;-81
2022/01/19 13:22:01;;;;;;;;;;;;;;;;;;;;;
2022/01/19 13:24:59;;;;;;;13.03;8.85;;;;;;;3.89;69.07;100712.50;2025430;86;21032;-80
2022/01/19 13:28:06;;;;;;;11.25;8.05;;;;;;;3.85;69.37;100700.53;2028085;86;21106;-79
2022/01/19 13:31:27;;;;;;;12.28;8.10;;;;;;;3.76;69.38;100684.13;2029304;85;21516;-79
2022/01/19 13:34:34;;;;;;;12.25;8.33;;;;;;;3.75;69.71;100677.22;2012434;85;21016;-79
2022/01/19 13:37:46;;;;;;;13.22;8.28;;;;;;;3.79;69.86;100679.97;2021174;86;21051;-79
2022/01/19 13:40:46;;;;;;;12.58;7.78;;;;;;;3.78;69.71;100666.02;1998098;86;21019;-79
2022/01/19 13:43:58;;;;;;;11.43;7.35;;;;;;;3.79;69.72;100661.11;2045867;85;21026;-79
2022/01/19 13:47:28;;;;;;;12.58;7.87;;;;;;;3.80;69.83;100658.01;2015965;86;21063;-78
2022/01/19 13:50:32;;;;;;;15.20;9.23;;;;;;;3.73;69.50;100654.16;1986824;86;21095;-79
2022/01/19 13:53:49;;;;;;;15.48;9.70;;;;;;;3.68;69.64;100651.02;2018017;86;21102;-80
2022/01/19 13:56:51;;;;;;;14.53;9.23;;;;;;;3.62;69.51;100644.42;2011968;86;21062;-79
2022/01/19 14:00:16;;;;;;;15.38;9.73;;;;;;;3.58;69.84;100639.88;2013828;86;21110;-78
2022/01/19 14:03:44;;;;;;;15.88;9.43;;;;;;;3.56;69.89;100629.95;2009666;86;21059;-78
2022/01/19 14:06:54;;;;;;;16.93;9.45;;;;;;;3.53;69.47;100628.86;2015332;85;21908;-78
2022/01/19 14:10:20;;;;;;;20.50;10.93;;;;;;;3.46;70.03;100619.73;2017530;86;21081;-79
2022/01/19 14:13:37;;;;;;;13.48;9.10;;;;;;;3.42;69.97;100604.34;2019642;86;21091;-78
2022/01/19 14:16:50;;;;;;;13.55;8.58;;;;;;;3.32;70.00;100608.07;2017762;85;21097;-81
2022/01/19 14:19:59;;;;;;;14.53;9.25;;;;;;;3.24;69.89;100599.91;2020840;86;21177;-79
2022/01/19 14:23:15;;;;;;;17.90;8.80;;;;;;;3.15;70.18;100597.45;2018669;86;21023;-79
2022/01/19 14:26:17;;;;;;;13.53;8.60;;;;;;;3.09;70.05;100581.67;2012860;86;21720;-79
2022/01/19 14:29:27;;;;;;;16.52;9.70;;;;;;;3.04;70.48;100577.70;2013239;86;21063;-79
2022/01/19 14:32:47;;;;;;;13.77;8.87;;;;;;;2.97;70.39;100568.60;2031290;85;22309;-79
2022/01/19 14:35:56;;;;;;;15.23;9.45;;;;;;;2.90;70.41;100556.38;2009226;87;21035;-80
2022/01/19 14:39:04;;;;;;;13.72;9.08;;;;;;;2.79;70.62;100550.59;2011077;86;21066;-81
2022/01/19 14:42:11;;;;;;;15.15;9.45;;;;;;;2.73;70.45;100547.53;2008965;87;21049;-81
2022/01/19 14:45:35;;;;;;;14.33;8.98;;;;;;;2.66;70.64;100549.75;2008939;86;21289;-86
2022/01/19 14:48:55;;;;;;;24.63;15.05;;;;;;;2.60;70.78;100549.70;2005615;86;21588;-80
2022/01/19 14:52:04;;;;;;;16.82;10.53;;;;;;;2.54;70.88;100533.58;2008296;87;21104;-80
2022/01/19 14:55:11;;;;;;;18.48;10.00;;;;;;;2.47;71.07;100528.73;2007952;86;21004;-80
2022/01/19 14:58:17;;;;;;;17.35;10.35;;;;;;;2.41;71.12;100534.87;2009947;87;21050;-81
2022/01/19 15:01:25;;;;;;;15.35;8.80;;;;;;;2.38;71.26;100531.98;2007819;87;21047;-82
2022/01/19 15:04:27;;;;;;;19.80;11.12;;;;;;;2.35;71.16;100528.27;2010722;86;21738;-80
2022/01/19 15:07:31;;;;;;;22.25;10.40;;;;;;;2.30;71.31;100517.73;2011576;87;20972;-78
2022/01/19 15:10:40;;;;;;;16.87;10.43;;;;;;;2.21;71.40;100513.48;1989561;87;21147;-80
2022/01/19 15:13:41;;;;;;;15.45;11.03;;;;;;;2.11;71.54;100505.91;2012197;87;21053;-84
2022/01/19 15:16:52;;;;;;;17.75;11.53;;;;;;;2.00;71.65;100498.77;2011345;87;21593;-80
2022/01/19 15:19:52;;;;;;;17.92;10.28;;;;;;;1.92;71.83;100484.52;2008382;87;21109;-79
2022/01/19 15:23:00;;;;;;;17.30;10.53;;;;;;;1.82;71.98;100473.80;1986479;87;21036;-82
2022/01/19 15:26:03;;;;;;;22.05;13.13;;;;;;;1.75;72.21;100459.47;2007126;87;21104;-81
2022/01/19 15:29:09;;;;;;;19.42;12.15;;;;;;;1.68;72.42;100452.48;2017023;87;21079;-81
2022/01/19 15:32:15;;;;;;;18.52;10.88;;;;;;;1.61;72.60;100442.06;2003356;87;21042;-82
2022/01/19 15:35:19;;;;;;;19.35;11.75;;;;;;;1.53;72.78;100433.41;2023798;86;21010;-82
2022/01/19 15:38:22;;;;;;;19.20;12.00;;;;;;;1.47;73.02;100423.83;2021602;86;21134;-81
2022/01/19 15:41:25;;;;;;;18.12;11.38;;;;;;;1.41;73.13;100421.59;2020214;86;21078;-82
2022/01/19 15:44:36;;;;;;;18.70;11.90;;;;;;;1.38;73.14;100415.27;2023975;86;21662;-82
2022/01/19 15:47:41;;;;;;;22.05;12.93;;;;;;;1.32;73.40;100407.35;2016419;86;21069;-83
2022/01/19 15:50:53;;;;;;;18.95;12.80;;;;;;;1.26;73.60;100402.05;2019783;85;21094;-83
2022/01/19 15:53:59;;;;;;;22.85;13.32;;;;;;;1.19;73.49;100394.27;2024051;85;21143;-81
2022/01/19 15:57:08;;;;;;;20.00;12.63;;;;;;;1.14;73.66;100388.48;1998153;86;21070;-81
2022/01/19 16:00:11;;;;;;;20.40;13.53;;;;;;;1.11;73.57;100391.30;2023631;86;21076;-81
2022/01/19 16:03:17;;;;;;;24.98;13.83;;;;;;;1.10;73.66;100397.00;2000848;87;21097;-81